Time;durP1;ratioP1;P1;durP2;ratioP2;P2;SDS_P1;SDS_P2;PMS_P1;PMS_P2;Temp;Humidity;BMP_temperature;BMP_pressure;BME280_temperature;BME280_humidity;BME280_pressure;Samples;Min_cycle;Max_cycle;Signal;HPM_P1;HPM_P2
2023/07/09 00:00:58;;;;;;;27.08;17.45;;;;;;;22.90;77.07;101803.09;6115995;19;20396;-75
2023/07/09 00:03:03;;;;;;;30.92;16.92;;;;;;;22.85;75.70;101798.06;6114551;19;20385;-73
2023/07/09 00:05:13;;;;;;;33.88;18.48;;;;;;;22.83;77.09;101800.03;6115759;19;20067;-74
2023/07/09 00:07:24;;;;;;;30.52;18.38;;;;;;;22.82;76.11;101808.19;6113493;19;20108;-74
2023/07/09 00:09:32;;;;;;;34.85;19.45;;;;;;;22.82;76.69;101809.03;6108685;19;20505;-74
2023/07/09 00:11:37;;;;;;;32.85;19.80;;;;;;;22.83;77.19;101809.88;6116524;19;20467;-73
2023/07/09 00:13:42;;;;;;;31.02;18.98;;;;;;;22.84;77.25;101819.66;6113987;19;20073;-73
2023/07/09 00:15:47;;;;;;;30.42;19.63;;;;;;;22.82;77.50;101818.91;6114114;19;20011;-73
2023/07/09 00:17:53;;;;;;;30.25;18.88;;;;;;;22.76;77.41;101823.75;6113155;19;20013;-73
2023/07/09 00:19:56;;;;;;;35.00;20.33;;;;;;;22.71;77.05;101822.41;6114408;19;20019;-73
2023/07/09 00:22:03;;;;;;;35.10;21.98;;;;;;;22.66;78.43;101830.78;6114847;19;20014;-73
2023/07/09 00:24:05;;;;;;;33.97;19.33;;;;;;;22.63;77.74;101822.13;6114070;19;20052;-74
2023/07/09 00:26:15;;;;;;;;;;;;;;;22.60;77.11;101825.06;6113003;19;20409;-73
2023/07/09 00:28:20;;;;;;;39.50;20.60;;;;;;;22.55;77.70;101826.25;6114147;19;19990;-72
2023/07/09 00:30:27;;;;;;;37.92;20.20;;;;;;;22.53;77.35;101830.00;6115252;19;20454;-75
2023/07/09 00:32:35;;;;;;;37.17;21.40;;;;;;;22.47;78.07;101825.97;6115276;19;20469;-74
2023/07/09 00:34:40;;;;;;;32.90;20.45;;;;;;;22.45;77.77;101835.09;6113557;19;20014;-74
2023/07/09 00:36:46;;;;;;;35.60;21.50;;;;;;;22.41;78.73;101823.75;6114585;19;20029;-73
2023/07/09 00:38:52;;;;;;;35.63;20.88;;;;;;;22.38;77.94;101815.09;6114577;19;20402;-73
2023/07/09 00:41:03;;;;;;;37.47;21.67;;;;;;;22.37;79.08;101829.47;6113800;19;20015;-73
2023/07/09 00:43:18;;;;;;;37.78;21.75;;;;;;;22.34;79.18;101830.53;6113219;19;20010;-74
2023/07/09 00:45:26;;;;;;;41.08;21.75;;;;;;;22.31;78.42;101828.94;6111262;19;20039;-73
2023/07/09 00:47:47;;;;;;;38.85;22.73;;;;;;;22.26;78.25;101822.22;6110199;19;20159;-72
2023/07/09 00:50:03;;;;;;;35.70;22.65;;;;;;;22.22;78.61;101823.41;6113726;19;20443;-73
2023/07/09 00:52:25;;;;;;;42.38;22.08;;;;;;;22.24;81.63;101822.31;6105747;19;20010;-73
2023/07/09 00:54:36;;;;;;;34.20;19.95;;;;;;;22.24;80.42;101825.00;6114328;19;20014;-74
2023/07/09 00:56:51;;;;;;;36.90;21.35;;;;;;;22.24;80.65;101824.16;6112340;19;20176;-74
2023/07/09 00:59:04;;;;;;;39.47;20.48;;;;;;;22.21;79.53;101819.03;6113260;19;20500;-73
2023/07/09 01:01:15;;;;;;;34.15;18.20;;;;;;;22.23;81.87;101827.81;6113330;19;20038;-74
2023/07/09 01:03:29;;;;;;;28.13;18.05;;;;;;;22.22;80.81;101824.28;6112716;19;20354;-73
2023/07/09 01:05:34;;;;;;;31.65;18.50;;;;;;;22.19;80.91;101826.31;6110549;19;20022;-73
2023/07/09 01:07:39;;;;;;;31.23;17.10;;;;;;;22.14;80.22;101830.19;6112886;19;20049;-75
2023/07/09 01:09:44;;;;;;;23.73;16.58;;;;;;;22.11;80.27;101825.03;6113034;19;20070;-73
2023/07/09 01:11:49;;;;;;;27.42;17.33;;;;;;;22.14;81.00;101838.22;6111568;19;20443;-73
2023/07/09 01:13:59;;;;;;;24.13;15.50;;;;;;;22.17;81.66;101837.13;6113001;19;20047;-73
2023/07/09 01:16:04;;;;;;;24.20;14.90;;;;;;;22.19;81.16;101835.19;6111804;19;20007;-75
2023/07/09 01:18:10;;;;;;;26.55;15.02;;;;;;;22.16;80.84;101834.56;6113024;19;20324;-73
2023/07/09 01:20:21;;;;;;;25.75;15.85;;;;;;;22.12;82.33;101826.75;6113915;19;20046;-73
2023/07/09 01:22:31;;;;;;;25.20;14.77;;;;;;;22.13;81.59;101835.63;6111733;19;20018;-73
2023/07/09 01:24:52;;;;;;;21.83;14.52;;;;;;;22.14;82.47;101845.34;6111661;19;20565;-72
2023/07/09 01:27:01;;;;;;;23.17;14.15;;;;;;;22.11;82.25;101843.75;6112449;19;20014;-75
2023/07/09 01:29:06;;;;;;;20.85;13.73;;;;;;;22.10;81.60;101843.91;6112023;19;20010;-75
2023/07/09 01:31:11;;;;;;;20.70;12.98;;;;;;;22.07;82.68;101844.13;6111319;19;20510;-73
2023/07/09 01:33:17;;;;;;;18.83;11.48;;;;;;;22.04;81.44;101849.72;6111675;19;20032;-73
2023/07/09 01:35:24;;;;;;;18.55;11.88;;;;;;;22.00;82.12;101851.72;6108518;19;20023;-72
2023/07/09 01:37:31;;;;;;;15.68;11.15;;;;;;;22.02;82.75;101846.28;6111996;19;20015;-73
2023/07/09 01:39:40;;;;;;;19.92;11.88;;;;;;;22.03;82.56;101848.81;6111542;19;20014;-73
2023/07/09 01:41:47;;;;;;;17.65;11.88;;;;;;;22.00;82.81;101848.19;6113158;19;20022;-75
2023/07/09 01:43:53;;;;;;;15.18;9.90;;;;;;;22.00;81.93;101858.91;6112815;19;20050;-73
2023/07/09 01:45:58;;;;;;;16.20;10.73;;;;;;;21.97;82.22;101843.94;6112062;19;20003;-74
2023/07/09 01:48:04;;;;;;;16.25;9.98;;;;;;;21.95;82.15;101853.03;6112237;19;20062;-74
2023/07/09 01:50:10;;;;;;;15.73;10.30;;;;;;;21.91;82.42;101850.59;6111400;19;20035;-74
2023/07/09 01:52:18;;;;;;;13.57;9.73;;;;;;;21.87;81.74;101850.91;6112755;19;20030;-73
2023/07/09 01:54:29;;;;;;;15.73;10.48;;;;;;;21.85;82.77;101839.44;6115307;19;20023;-73
2023/07/09 01:56:38;;;;;;;12.35;9.13;;;;;;;21.85;82.89;101847.47;6115582;19;20365;-73
2023/07/09 01:58:43;;;;;;;14.32;9.93;;;;;;;21.82;82.95;101845.88;6117229;19;20071;-73
2023/07/09 02:00:51;;;;;;;15.10;10.18;;;;;;;21.81;82.89;101848.69;6115838;19;20003;-72
2023/07/09 02:02:57;;;;;;;15.10;10.13;;;;;;;21.77;82.37;101841.84;6115290;19;20002;-75
2023/07/09 02:05:06;;;;;;;13.40;9.52;;;;;;;21.75;83.16;101846.44;6114075;19;20006;-74
2023/07/09 02:07:11;;;;;;;16.63;10.50;;;;;;;21.71;82.36;101843.13;6115937;19;20025;-74
2023/07/09 02:09:16;;;;;;;17.05;10.48;;;;;;;21.70;82.56;101847.63;6116182;19;20031;-74
2023/07/09 02:11:23;;;;;;;14.75;10.25;;;;;;;21.66;81.21;101843.44;6115295;19;20131;-74
2023/07/09 02:13:28;;;;;;;13.63;9.15;;;;;;;21.65;82.49;101843.59;6107833;19;20140;-74
2023/07/09 02:15:33;;;;;;;14.07;9.60;;;;;;;21.65;82.65;101843.59;6112162;19;20018;-74
2023/07/09 02:17:36;;;;;;;15.90;9.68;;;;;;;21.62;82.27;101849.16;6113379;19;20086;-74
2023/07/09 02:19:41;;;;;;;14.45;9.88;;;;;;;21.58;82.16;101847.66;6113600;19;20976;-74
2023/07/09 02:21:47;;;;;;;11.93;8.82;;;;;;;21.58;83.02;101853.00;6112300;19;20381;-74
2023/07/09 02:23:53;;;;;;;15.18;10.45;;;;;;;21.57;83.46;101846.81;6109968;19;20010;-75
2023/07/09 02:25:58;;;;;;;16.80;10.38;;;;;;;;;;6111337;19;20053;-73
2023/07/09 02:28:07;;;;;;;14.98;9.48;;;;;;;21.54;82.59;101840.78;6111504;19;19999;-72
2023/07/09 02:30:13;;;;;;;14.27;9.90;;;;;;;21.53;84.61;101842.63;6109563;19;20011;-73
2023/07/09 02:32:21;;;;;;;15.68;10.35;;;;;;;21.58;84.58;101839.63;6110114;19;20015;-74
2023/07/09 02:34:31;;;;;;;14.27;10.15;;;;;;;21.59;85.33;101839.53;6110912;19;19999;-74
2023/07/09 02:36:33;;;;;;;14.82;10.02;;;;;;;21.58;85.17;101836.94;6110960;19;20034;-73
2023/07/09 02:38:38;;;;;;;14.68;10.15;;;;;;;;;;6111951;19;20011;-73
2023/07/09 02:40:43;;;;;;;16.27;9.95;;;;;;;21.57;86.41;101837.94;6111364;19;20467;-73
2023/07/09 02:42:48;;;;;;;16.25;10.70;;;;;;;21.57;86.06;101835.25;6110607;19;20038;-73
2023/07/09 02:44:55;;;;;;;15.50;9.90;;;;;;;21.53;85.03;101839.09;6110261;19;20063;-74
2023/07/09 02:47:03;;;;;;;15.18;11.02;;;;;;;21.50;86.14;101844.66;6109824;19;20086;-73
2023/07/09 02:49:11;;;;;;;16.50;10.20;;;;;;;21.45;84.06;101847.66;6112116;19;20018;-73
2023/07/09 02:51:16;;;;;;;16.20;11.38;;;;;;;21.42;84.01;101853.22;6112518;19;20011;-74
2023/07/09 02:53:21;;;;;;;13.88;9.95;;;;;;;21.38;85.04;101849.03;6110480;19;20007;-72
2023/07/09 02:55:26;;;;;;;15.20;10.35;;;;;;;21.36;85.00;101842.94;6108235;19;20006;-74
2023/07/09 02:57:32;;;;;;;16.55;11.15;;;;;;;21.35;85.12;101844.72;6110521;19;20015;-73
2023/07/09 02:59:37;;;;;;;16.08;11.63;;;;;;;21.31;85.99;101848.59;6108974;19;20484;-73
2023/07/09 03:01:45;;;;;;;16.77;11.07;;;;;;;21.31;86.07;101853.94;6109313;19;20122;-73
2023/07/09 03:03:50;;;;;;;19.98;12.07;;;;;;;21.30;85.68;101854.03;6109402;19;20085;-73
2023/07/09 03:05:55;;;;;;;16.17;10.80;;;;;;;21.26;85.33;101853.41;6110036;19;20011;-73
2023/07/09 03:08:03;;;;;;;17.20;11.32;;;;;;;21.24;86.50;101850.84;6109765;19;20094;-74
2023/07/09 03:10:09;;;;;;;18.77;12.27;;;;;;;21.24;87.68;101855.31;6112081;19;20002;-73
2023/07/09 03:12:14;;;;;;;16.90;12.23;;;;;;;21.21;86.68;101852.88;6115109;19;20015;-75
2023/07/09 03:14:19;;;;;;;17.00;11.85;;;;;;;21.19;86.71;101849.44;6114931;19;20017;-72
2023/07/09 03:16:22;;;;;;;17.00;11.15;;;;;;;21.15;85.53;101850.63;6116099;19;20029;-73
2023/07/09 03:18:29;;;;;;;16.75;11.60;;;;;;;21.14;86.73;101849.75;6115685;19;20038;-74
2023/07/09 03:20:35;;;;;;;16.58;10.85;;;;;;;21.15;86.16;101851.47;6114424;19;20351;-74
2023/07/09 03:22:40;;;;;;;16.42;10.88;;;;;;;21.12;86.24;101848.19;6115817;19;20042;-75
2023/07/09 03:24:47;;;;;;;17.38;12.20;;;;;;;21.10;86.84;101848.28;6114058;19;20036;-72
2023/07/09 03:26:56;;;;;;;19.05;11.65;;;;;;;21.08;86.36;101850.19;6115145;19;20081;-73
2023/07/09 03:29:04;;;;;;;16.75;11.63;;;;;;;21.09;86.46;101853.72;6115304;19;20011;-73
2023/07/09 03:31:09;;;;;;;18.38;10.90;;;;;;;21.08;87.29;101860.03;6115946;19;20010;-74
2023/07/09 03:33:15;;;;;;;16.70;10.77;;;;;;;21.09;86.84;101854.59;6113358;19;20082;-74
2023/07/09 03:35:23;;;;;;;16.88;12.20;;;;;;;21.17;88.70;101862.06;6115675;19;20007;-74
2023/07/09 03:37:28;;;;;;;19.10;13.23;;;;;;;21.19;89.74;101862.81;6112986;19;20082;-74
2023/07/09 03:39:33;;;;;;;20.80;14.20;;;;;;;21.34;88.62;101864.41;6112090;19;20006;-74
2023/07/09 03:41:39;;;;;;;20.65;13.15;;;;;;;21.37;88.29;101864.19;6115206;19;20052;-73
2023/07/09 03:43:46;;;;;;;17.23;12.35;;;;;;;21.36;88.00;101870.53;6116050;19;20098;-74
2023/07/09 03:45:51;;;;;;;23.95;12.70;;;;;;;21.34;87.40;101876.94;6115109;19;20073;-74
2023/07/09 03:47:56;;;;;;;20.98;14.18;;;;;;;21.31;87.81;101871.81;6114891;19;20022;-74
2023/07/09 03:50:02;;;;;;;20.10;13.05;;;;;;;21.27;88.16;101868.47;6115444;19;20054;-73
2023/07/09 03:52:10;;;;;;;20.38;13.88;;;;;;;21.22;88.19;101878.63;6114015;19;20015;-74
2023/07/09 03:54:15;;;;;;;17.80;11.68;;;;;;;21.22;88.11;101862.59;6114402;19;20014;-75
2023/07/09 03:56:20;;;;;;;20.17;13.18;;;;;;;21.24;88.61;101866.88;6112257;19;20002;-75
2023/07/09 03:58:26;;;;;;;17.95;12.40;;;;;;;21.28;88.37;101862.19;6114961;19;20028;-74
2023/07/09 04:00:32;;;;;;;20.50;11.82;;;;;;;21.29;88.60;101849.66;6115688;19;20007;-75
2023/07/09 04:02:40;;;;;;;18.77;12.20;;;;;;;21.27;87.97;101863.13;6112760;19;20010;-75
2023/07/09 04:04:48;;;;;;;20.70;12.43;;;;;;;21.29;88.05;101860.38;6114681;19;20361;-73
2023/07/09 04:06:53;;;;;;;22.27;14.43;;;;;;;21.29;88.22;101852.34;6114277;19;20391;-73
2023/07/09 04:09:02;;;;;;;19.77;14.35;;;;;;;21.27;88.15;101847.97;6113876;19;20024;-73
2023/07/09 04:11:08;;;;;;;19.88;12.55;;;;;;;21.30;88.21;101849.56;6113709;19;20014;-73
2023/07/09 04:13:13;;;;;;;20.02;13.02;;;;;;;21.31;87.70;101851.28;6114742;19;20088;-74
2023/07/09 04:15:17;;;;;;;19.70;11.63;;;;;;;21.30;87.43;101854.91;6113333;19;20494;-75
2023/07/09 04:17:23;;;;;;;18.88;12.32;;;;;;;21.30;87.35;101860.28;6108602;19;20043;-74
2023/07/09 04:19:28;;;;;;;19.98;11.88;;;;;;;21.29;87.03;101855.88;6114226;19;20356;-73
2023/07/09 04:21:33;;;;;;;17.85;11.82;;;;;;;21.32;87.40;101857.47;6112443;19;20014;-73
2023/07/09 04:23:41;;;;;;;20.50;12.52;;;;;;;21.32;86.76;101849.44;6115195;19;20129;-75
2023/07/09 04:25:49;;;;;;;21.65;13.43;;;;;;;21.32;87.48;101852.13;6112199;19;20018;-75
2023/07/09 04:27:54;;;;;;;19.65;12.55;;;;;;;21.35;87.63;101866.13;6112953;19;20022;-74
2023/07/09 04:29:59;;;;;;;21.92;14.55;;;;;;;21.33;87.95;101865.41;6113963;19;20018;-74
2023/07/09 04:32:13;;;;;;;21.05;13.63;;;;;;;21.32;88.51;101868.16;6114477;19;20014;-71
2023/07/09 04:34:19;;;;;;;20.17;13.80;;;;;;;21.39;88.02;101874.84;6113846;19;20063;-74
2023/07/09 04:36:25;;;;;;;21.30;13.65;;;;;;;21.40;88.68;101873.88;6112877;19;20007;-74
2023/07/09 04:38:35;;;;;;;24.30;16.45;;;;;;;21.46;88.31;101870.78;6106908;19;20048;-73
2023/07/09 04:40:38;;;;;;;22.73;14.90;;;;;;;21.47;88.20;101867.97;6113980;19;20010;-73
2023/07/09 04:42:45;;;;;;;24.92;16.70;;;;;;;21.53;88.56;101872.03;6113794;19;20011;-74
2023/07/09 04:44:50;;;;;;;26.38;17.58;;;;;;;21.61;87.97;101874.19;6113686;19;20011;-73
2023/07/09 04:46:55;;;;;;;22.45;16.42;;;;;;;21.62;88.22;101881.25;6114120;19;20514;-73
2023/07/09 04:49:03;;;;;;;25.85;17.77;;;;;;;21.65;88.56;101879.22;6113664;19;20023;-73
2023/07/09 04:51:08;;;;;;;25.15;15.93;;;;;;;21.75;87.80;101881.22;6115305;19;20022;-73
2023/07/09 04:53:13;;;;;;;23.75;14.43;;;;;;;21.82;87.64;101878.00;6112010;19;20554;-75
2023/07/09 04:55:18;;;;;;;27.48;16.98;;;;;;;21.91;87.44;101887.19;6112789;19;20007;-72
2023/07/09 04:57:24;;;;;;;25.77;16.70;;;;;;;22.01;86.87;101882.91;6110937;19;20407;-73
2023/07/09 04:59:39;;;;;;;25.13;16.52;;;;;;;22.11;86.74;101877.72;6112082;19;20043;-75
2023/07/09 05:01:44;;;;;;;26.27;17.60;;;;;;;22.24;86.51;101889.28;6113462;19;20018;-75
2023/07/09 05:03:49;;;;;;;25.55;17.40;;;;;;;22.40;85.73;101896.19;6113131;19;20380;-75
2023/07/09 05:05:55;;;;;;;26.48;18.73;;;;;;;22.57;84.34;101890.44;6112956;19;20007;-76
2023/07/09 05:08:02;;;;;;;26.45;18.50;;;;;;;22.70;84.13;101895.75;6113620;19;20126;-76
2023/07/09 05:10:09;;;;;;;32.47;18.02;;;;;;;22.82;84.17;101884.06;6114134;19;20467;-74
2023/07/09 05:12:14;;;;;;;24.63;17.83;;;;;;;23.02;82.94;101889.78;6113595;19;20036;-76
2023/07/09 05:14:19;;;;;;;28.10;18.08;;;;;;;23.12;83.29;101897.00;6114120;19;20019;-73
2023/07/09 05:16:28;;;;;;;28.02;19.45;;;;;;;23.21;81.95;101898.13;6114896;19;20467;-74
2023/07/09 05:18:33;;;;;;;29.95;19.27;;;;;;;23.30;81.63;101893.84;6115160;19;20019;-73
2023/07/09 05:20:39;;;;;;;27.67;18.35;;;;;;;23.40;80.72;101886.81;6116076;19;20019;-74
2023/07/09 05:22:43;;;;;;;30.42;19.25;;;;;;;23.54;80.23;101880.34;6115674;19;20006;-74
2023/07/09 05:24:48;;;;;;;27.30;19.73;;;;;;;23.43;79.17;101882.06;6117403;19;20007;-74
2023/07/09 05:26:51;;;;;;;30.85;20.48;;;;;;;23.49;78.50;101886.09;6113918;19;20443;-74
2023/07/09 05:28:57;;;;;;;35.92;21.92;;;;;;;23.54;78.52;101885.72;6115591;19;20002;-74
2023/07/09 05:31:02;;;;;;;32.38;21.73;;;;;;;23.82;77.76;101885.25;6115580;19;20006;-74
2023/07/09 05:33:10;;;;;;;33.33;22.92;;;;;;;23.86;76.91;101880.53;6114577;19;20063;-74
2023/07/09 05:35:15;;;;;;;34.35;22.63;;;;;;;23.75;76.29;101883.19;6118074;19;20021;-74
2023/07/09 05:37:20;;;;;;;34.47;22.90;;;;;;;23.92;75.88;101877.34;6116616;19;20059;-74
2023/07/09 05:39:25;;;;;;;36.25;22.90;;;;;;;23.94;75.79;101880.75;6114746;19;20014;-74
2023/07/09 05:41:31;;;;;;;34.10;21.85;;;;;;;23.83;76.29;101873.56;6113775;19;20045;-73
2023/07/09 05:43:36;;;;;;;33.47;21.98;;;;;;;24.03;75.04;101876.47;6113770;19;20046;-73
2023/07/09 05:45:43;;;;;;;36.25;23.50;;;;;;;24.01;75.13;101878.41;6114567;19;20017;-72
2023/07/09 05:47:48;;;;;;;37.15;23.08;;;;;;;24.10;74.33;101872.31;6112251;19;20011;-73
2023/07/09 05:49:56;;;;;;;31.70;23.10;;;;;;;24.36;73.51;101874.69;6112840;19;20029;-74
2023/07/09 05:52:02;;;;;;;40.08;24.80;;;;;;;24.14;73.53;101878.28;6112108;19;20013;-74
2023/07/09 05:54:07;;;;;;;39.83;26.98;;;;;;;24.06;73.87;101866.31;6112397;19;20039;-73
2023/07/09 05:56:12;;;;;;;42.10;27.33;;;;;;;24.15;71.70;101872.78;6111049;19;20038;-73
2023/07/09 05:58:17;;;;;;;34.92;26.05;;;;;;;24.33;71.78;101878.50;6112911;19;20026;-73
2023/07/09 06:00:23;;;;;;;38.22;25.50;;;;;;;24.37;70.64;101879.06;6110876;19;20014;-74
2023/07/09 06:02:28;;;;;;;41.53;27.02;;;;;;;24.32;69.14;101882.97;6111631;19;20022;-74
2023/07/09 06:04:34;;;;;;;40.90;28.35;;;;;;;24.44;69.23;101886.53;6110134;19;20197;-74
2023/07/09 06:06:42;;;;;;;42.45;27.27;;;;;;;24.59;68.56;101895.13;6110987;19;20071;-73
2023/07/09 06:08:47;;;;;;;41.20;27.00;;;;;;;24.68;67.71;101883.63;6111664;19;20036;-74
2023/07/09 06:11:00;;;;;;;37.75;26.17;;;;;;;24.40;68.67;101890.41;6112135;19;20002;-73
2023/07/09 06:13:05;;;;;;;38.83;26.35;;;;;;;24.44;67.82;101883.84;6111589;19;20096;-73
2023/07/09 06:15:12;;;;;;;37.97;25.27;;;;;;;24.50;67.75;101885.16;6111316;19;20011;-74
2023/07/09 06:17:17;;;;;;;36.72;25.42;;;;;;;24.39;68.00;101891.41;6109642;19;20011;-73
2023/07/09 06:19:23;;;;;;;34.10;25.48;;;;;;;24.41;67.94;101892.13;6104150;19;20019;-73
2023/07/09 06:21:28;;;;;;;39.47;24.52;;;;;;;24.37;68.25;101885.28;6109994;19;20019;-74
2023/07/09 06:23:36;;;;;;;36.70;23.80;;;;;;;24.43;68.12;101895.53;6111094;19;20042;-72
2023/07/09 06:25:41;;;;;;;39.17;25.48;;;;;;;24.44;67.52;101891.03;6110966;19;20011;-73
2023/07/09 06:27:46;;;;;;;36.72;24.23;;;;;;;24.67;65.57;101902.56;6110208;19;20114;-73
2023/07/09 06:29:51;;;;;;;35.78;21.73;;;;;;;24.66;64.16;101904.41;6109940;19;20014;-74
2023/07/09 06:31:56;;;;;;;33.25;22.15;;;;;;;24.86;64.60;101915.34;6108433;19;20074;-74
2023/07/09 06:34:01;;;;;;;32.42;22.08;;;;;;;24.89;63.11;101910.53;6110476;19;20038;-74
2023/07/09 06:36:07;;;;;;;31.27;19.02;;;;;;;25.23;62.71;101913.09;6111139;19;20086;-74
2023/07/09 06:38:12;;;;;;;28.00;19.38;;;;;;;25.00;62.87;101924.91;6110226;19;20050;-74
2023/07/09 06:40:24;;;;;;;30.08;18.55;;;;;;;24.85;61.14;101919.84;6106401;19;20086;-73
2023/07/09 06:42:29;;;;;;;24.40;15.67;;;;;;;24.83;59.66;101929.00;6110776;19;20019;-73
2023/07/09 06:44:34;;;;;;;22.30;14.98;;;;;;;25.09;58.48;101934.88;6111320;19;20036;-72
2023/07/09 06:46:39;;;;;;;20.25;14.23;;;;;;;25.02;58.15;101936.41;6114608;19;20039;-73
2023/07/09 06:48:44;;;;;;;23.08;14.60;;;;;;;25.27;56.09;101949.50;6116713;19;20011;-73
2023/07/09 06:50:50;;;;;;;23.38;15.27;;;;;;;24.93;56.56;101941.56;6113797;19;20005;-74
2023/07/09 06:52:56;;;;;;;23.33;14.35;;;;;;;25.17;56.73;101951.25;6113505;19;19999;-73
2023/07/09 06:55:02;;;;;;;21.02;15.32;;;;;;;25.02;55.56;101953.41;6115096;19;20010;-75
2023/07/09 06:57:10;;;;;;;21.80;14.60;;;;;;;24.96;55.79;101957.47;6115904;19;20529;-73
2023/07/09 06:59:15;;;;;;;23.95;13.15;;;;;;;25.13;55.54;101957.88;6115000;19;20017;-73
2023/07/09 07:01:21;;;;;;;18.25;12.95;;;;;;;25.17;55.46;101959.31;6111699;19;20002;-73
2023/07/09 07:03:27;;;;;;;22.88;14.48;;;;;;;25.11;55.83;101955.28;6112670;19;20028;-74
2023/07/09 07:05:32;;;;;;;22.63;13.93;;;;;;;25.12;55.39;101965.09;6115429;19;20053;-73
2023/07/09 07:07:38;;;;;;;22.40;13.13;;;;;;;25.61;54.50;101963.59;6113990;19;20389;-74
2023/07/09 07:09:43;;;;;;;20.55;13.43;;;;;;;25.78;54.45;101962.13;6110844;19;20687;-75
2023/07/09 07:11:48;;;;;;;20.63;13.18;;;;;;;26.10;53.99;101963.00;6116566;19;20032;-73
2023/07/09 07:13:56;;;;;;;18.48;12.68;;;;;;;25.68;55.30;101963.06;6115813;19;20022;-73
2023/07/09 07:16:02;;;;;;;20.52;12.43;;;;;;;26.24;54.22;101957.22;6116815;19;20014;-74
2023/07/09 07:18:09;;;;;;;20.17;12.45;;;;;;;26.35;54.40;101957.13;6117161;19;20023;-73
2023/07/09 07:20:12;;;;;;;19.08;12.25;;;;;;;26.47;53.14;101945.22;6116303;19;20023;-73
2023/07/09 07:22:17;;;;;;;19.35;11.65;;;;;;;26.43;53.39;101949.19;6116365;19;20043;-73
2023/07/09 07:24:23;;;;;;;19.23;10.02;;;;;;;26.49;53.49;101937.03;6114959;19;20017;-73
2023/07/09 07:26:29;;;;;;;16.67;9.77;;;;;;;26.66;53.75;101932.81;6116064;19;20006;-74
2023/07/09 07:28:40;;;;;;;15.45;9.77;;;;;;;26.40;53.73;101921.66;6113540;19;20011;-74
2023/07/09 07:30:48;;;;;;;15.93;9.33;;;;;;;26.52;53.63;101922.44;6115732;19;20011;-73
2023/07/09 07:32:54;;;;;;;15.10;8.70;;;;;;;26.55;53.09;101919.47;6114498;19;20022;-73
2023/07/09 07:34:59;;;;;;;18.50;8.80;;;;;;;26.79;52.06;101922.59;6111338;19;20018;-73
2023/07/09 07:37:04;;;;;;;13.30;8.10;;;;;;;26.87;51.66;101908.41;6113266;19;20015;-73
2023/07/09 07:39:09;;;;;;;16.55;9.23;;;;;;;26.64;52.18;101905.97;6114707;19;20019;-73
2023/07/09 07:41:14;;;;;;;14.02;7.90;;;;;;;27.40;51.21;101905.22;6113706;19;20372;-73
2023/07/09 07:43:17;;;;;;;13.25;7.68;;;;;;;27.65;50.41;101908.25;6114717;19;20027;-74
2023/07/09 07:45:23;;;;;;;16.33;9.23;;;;;;;27.48;50.38;101912.56;6111915;19;20030;-73
2023/07/09 07:47:33;;;;;;;14.82;8.85;;;;;;;27.26;50.93;101916.47;6113897;19;20027;-74
2023/07/09 07:49:43;;;;;;;16.63;10.53;;;;;;;27.52;50.75;101917.53;6111651;19;20106;-75
2023/07/09 07:51:48;;;;;;;17.42;9.00;;;;;;;27.87;48.82;101907.91;6116422;19;20333;-74
2023/07/09 07:53:55;;;;;;;14.48;9.27;;;;;;;27.49;50.17;101920.53;6103970;19;20015;-73
2023/07/09 07:56:03;;;;;;;15.05;8.57;;;;;;;27.62;50.23;101911.25;6105583;19;20018;-73
2023/07/09 07:58:08;;;;;;;14.52;8.85;;;;;;;27.59;50.98;101920.50;6113201;19;20560;-73
2023/07/09 08:00:25;;;;;;;14.00;7.38;;;;;;;27.43;51.79;101915.72;6113635;19;20039;-73
2023/07/09 08:02:38;;;;;;;14.82;8.85;;;;;;;27.39;51.83;101917.00;6115483;19;20015;-74
2023/07/09 08:04:51;;;;;;;14.85;7.68;;;;;;;27.65;51.68;101916.34;6115029;19;20002;-73
2023/07/09 08:06:58;;;;;;;11.93;6.78;;;;;;;27.60;51.63;101907.88;6095788;19;20032;-74
2023/07/09 08:09:03;;;;;;;16.13;7.75;;;;;;;27.54;51.72;101917.38;6112667;19;20006;-73
2023/07/09 08:11:09;;;;;;;12.95;7.22;;;;;;;27.51;52.22;101913.13;6114080;19;20014;-73
2023/07/09 08:15:42;;;;;;;11.65;5.75;;;;;;;27.63;52.04;101915.66;6058666;19;20081;-74
2023/07/09 08:17:50;;;;;;;12.60;6.57;;;;;;;27.06;52.90;101916.47;6113327;19;20037;-74
2023/07/09 08:19:56;;;;;;;15.13;6.18;;;;;;;26.78;54.13;101915.50;6111799;19;20471;-74
2023/07/09 08:22:07;;;;;;;12.45;7.07;;;;;;;26.94;54.27;101920.31;6114294;19;20006;-74
2023/07/09 08:24:12;;;;;;;13.50;7.05;;;;;;;27.01;53.34;101912.50;6111058;19;20050;-74
2023/07/09 08:26:17;;;;;;;10.90;6.20;;;;;;;27.20;53.16;101906.25;6112850;19;20032;-74
2023/07/09 08:28:23;;;;;;;12.35;6.45;;;;;;;27.54;52.96;101903.88;6114498;19;20467;-75
2023/07/09 08:30:32;;;;;;;13.10;6.35;;;;;;;28.45;51.15;101904.88;6113999;19;20018;-72
2023/07/09 08:32:40;;;;;;;10.98;6.22;;;;;;;28.56;50.04;101903.78;6113535;19;20528;-73
2023/07/09 08:34:48;;;;;;;10.88;6.05;;;;;;;29.34;48.96;101903.13;6112613;19;20112;-73
2023/07/09 08:37:13;;;;;;;11.05;5.43;;;;;;;29.45;47.07;101899.28;6113889;19;20003;-74
2023/07/09 08:39:18;;;;;;;11.75;5.53;;;;;;;29.27;47.17;101905.59;6114269;19;20018;-72
2023/07/09 08:41:41;;;;;;;10.70;5.85;;;;;;;29.69;47.01;101910.28;6105404;19;20536;-73
2023/07/09 08:44:04;;;;;;;10.93;5.88;;;;;;;29.37;47.15;101912.78;6113620;19;20010;-73
2023/07/09 08:46:22;;;;;;;11.40;5.38;;;;;;;29.56;46.82;101917.13;6113570;19;20086;-75
2023/07/09 08:48:34;;;;;;;8.88;5.00;;;;;;;29.87;45.45;101922.88;6113424;19;20003;-73
2023/07/09 08:50:45;;;;;;;8.82;5.00;;;;;;;28.44;48.12;101921.28;6112928;19;20011;-73
2023/07/09 08:52:53;;;;;;;8.63;4.70;;;;;;;28.61;47.83;101925.81;6114491;19;20035;-73
2023/07/09 08:55:02;;;;;;;12.25;5.47;;;;;;;28.24;48.64;101931.31;6114918;19;20007;-72
2023/07/09 08:57:19;;;;;;;9.18;5.47;;;;;;;29.01;48.11;101929.06;6112514;19;20010;-72
2023/07/09 08:59:25;;;;;;;9.65;5.13;;;;;;;29.31;46.44;101931.34;6107999;19;20036;-74
2023/07/09 09:01:39;;;;;;;8.43;4.85;;;;;;;29.58;45.82;101931.34;6116067;19;20026;-75
2023/07/09 09:03:50;;;;;;;8.63;4.55;;;;;;;29.53;46.14;101935.38;6114769;19;20056;-74
2023/07/09 09:05:58;;;;;;;9.63;4.60;;;;;;;29.53;45.70;101932.66;6117362;19;20010;-74
2023/07/09 09:08:13;;;;;;;8.48;4.75;;;;;;;29.50;46.74;101937.56;6115828;19;20465;-74
2023/07/09 09:10:23;;;;;;;7.82;4.53;;;;;;;29.68;45.21;101932.97;6116056;19;20011;-74
2023/07/09 09:12:38;;;;;;;9.35;5.18;;;;;;;29.63;46.13;101946.09;6112186;19;20086;-75
2023/07/09 09:14:46;;;;;;;8.52;4.55;;;;;;;29.14;47.21;101948.47;6113801;19;20010;-75
2023/07/09 09:16:54;;;;;;;8.20;4.13;;;;;;;29.37;46.83;101942.56;6113313;19;20023;-73
2023/07/09 09:19:03;;;;;;;7.45;3.65;;;;;;;29.05;46.85;101933.19;6113290;19;20440;-73
2023/07/09 09:21:19;;;;;;;8.25;4.18;;;;;;;28.63;48.84;101928.38;6112793;19;20002;-73
2023/07/09 09:23:29;;;;;;;9.20;4.28;;;;;;;29.25;48.60;101914.88;6110724;19;20011;-73
2023/07/09 09:25:35;;;;;;;7.63;3.75;;;;;;;29.77;46.46;101914.88;6112098;19;20018;-74
2023/07/09 09:27:41;;;;;;;7.93;3.95;;;;;;;29.07;46.99;101917.66;6113328;19;20010;-74
2023/07/09 09:29:46;;;;;;;10.63;5.72;;;;;;;28.29;49.20;101920.06;6110765;19;20015;-73
2023/07/09 09:31:56;;;;;;;8.05;3.65;;;;;;;28.07;50.52;101922.19;6111249;19;20490;-74
2023/07/09 09:34:01;;;;;;;8.57;3.95;;;;;;;28.99;47.74;101913.00;6112543;19;20011;-74
2023/07/09 09:36:06;;;;;;;7.38;4.10;;;;;;;29.65;47.33;101911.63;6113154;19;20030;-73
2023/07/09 09:38:18;;;;;;;5.95;3.50;;;;;;;29.52;46.32;101912.03;6111978;19;20011;-73
2023/07/09 09:40:26;;;;;;;6.32;3.58;;;;;;;29.89;45.93;101907.31;6112018;19;20087;-74
2023/07/09 09:42:34;;;;;;;6.32;3.17;;;;;;;30.26;45.79;101908.84;6111515;19;20483;-74
2023/07/09 09:44:39;;;;;;;8.18;3.85;;;;;;;30.92;44.62;101920.63;6112501;19;20018;-74